メインページ
METAR-TAF:

METAR-TAF

空港 :

ファアモツ国際空港

トンガタプ島, トンガ

緯度: 21-14S, 経度: 175-09W, 海抜: 38m

現時点の気象観測

当レポートは27分前の05:00(UTC)に作成
東/北東の風 4kt
気温 24°C
湿度 89%
気圧 1016 hPa
視程10km以上
高度1700ftの雲はほとんどない
高度11000ftの雲は散在している
高度29000ftの千切れ雲あり

METAR: NFTF 200500Z 07004KT 9999 FEW017 SCT110 BKN290 24/22 Q1016

時間: 18:27 (05:27 UTC)

予報

当レポートは6時間21分前の23:06(UTC)に作成
予報は20日の 00時(UTC)から 20日の 24時(UTC)まで有効
東/北東の風 8kt
視程10km以上
高度1700ftの雲は散在している
高度10000ftの千切れ雲あり
確率 30% :
20日の 00時(UTC)から 20日の 06時(UTC)まで一時的に
視程: 5000m
高度1400ftの千切れ雲あり
にわか雨

TAF: NFTF 192306Z 2000/2024 07008KT 9999 SCT017 BKN100 PROB30 TEMPO 2000/2006 5000 SHRA BKN014

4,000以上の空港の気象観測と天気予報(METAR報とTAF報)

利用可能な観測所は地図上に黄色い丸と赤い丸で示す。

丸の上にカーソルを重ねると観測所名を参照できる。

次にクリックすると気象観測と天気予報を参照できる。

マップの切り替え:黒色「×」印の緑ボタンをクリックして拡大、「-」印の緑ボタンをクリックして縮小、緑色の三角印をクリックして隣りの地図に切り替え


METAR-TAF: